Time,TemperatureF,DewpointF,PressureIn,WindDirection,WindDirectionDegrees,WindSpeedMPH,WindSpeedGustMPH,Humidity,HourlyPrecipIn,Conditions,Clouds,dailyrainin,SoftwareType,DateUTC
2015-09-01 00:00:00,64.7,63.3,29.08,North,0,0.0,0.0,95,0.00,,,0.00,proprietary,2015-09-01 04:00:00,
2015-09-01 00:05:00,64.6,63.4,29.08,SW,232,0.7,0.9,95,0.00,,,0.00,proprietary,2015-09-01 04:05:00,
2015-09-01 00:10:00,64.3,63.0,29.08,North,0,0.0,0.0,95,0.00,,,0.00,proprietary,2015-09-01 04:10:00,
2015-09-01 00:11:00,64.3,63.1,29.08,SSW,208,0.6,0.9,95,0.00,,,0.00,proprietary,2015-09-01 04:11:00,
2015-09-01 00:12:00,64.3,63.0,29.08,North,0,0.0,0.0,95,0.00,,,0.00,proprietary,2015-09-01 04:12:00,
2015-09-01 00:13:00,64.2,63.0,29.08,North,0,0.0,0.0,95,0.00,,,0.00,proprietary,2015-09-01 04:13:00,
2015-09-01 00:14:00,64.2,63.0,29.08,North,0,0.0,0.0,95,0.00,,,0.00,proprietary,2015-09-01 04:14:00,
2015-09-01 00:15:00,64.3,63.1,29.08,SSW,206,0.8,0.9,95,0.00,,,0.00,proprietary,2015-09-01 04:15:00,
2015-09-01 00:16:00,64.2,62.9,29.08,SW,236,0.2,0.8,95,0.00,,,0.00,proprietary,2015-09-01 04:16:00,
2015-09-01 00:17:00,64.2,63.0,29.08,SW,229,0.9,1.1,95,0.00,,,0.00,proprietary,2015-09-01 04:17:00,
2015-09-01 00:18:00,64.2,63.0,29.08,SW,225,0.5,0.9,95,0.00,,,0.00,proprietary,2015-09-01 04:18:00,
2015-09-01 00:19:00,64.2,63.0,29.08,SW,219,0.8,0.9,95,0.00,,,0.00,proprietary,2015-09-01 04:19:00,
2015-09-01 00:20:00,64.2,63.0,29.08,SW,214,0.9,0.9,95,0.00,,,0.00,proprietary,2015-09-01 04:20:00,
2015-09-01 00:21:00,64.2,63.0,29.09,SSW,211,1.0,1.1,95,0.00,,,0.00,proprietary,2015-09-01 04:21:00,
2015-09-01 00:22:00,64.1,62.9,29.09,SSW,205,0.9,1.0,95,0.00,,,0.00,proprietary,2015-09-01 04:22:00,
2015-09-01 00:23:00,64.1,62.8,29.09,SSW,199,0.9,1.0,95,0.00,,,0.00,proprietary,2015-09-01 04:23:00,
2015-09-01 00:24:00,64.0,62.7,29.09,SSW,193,0.8,1.0,95,0.00,,,0.00,proprietary,2015-09-01 04:24:00,
2015-09-01 00:25:00,63.9,62.7,29.09,South,190,0.9,1.0,95,0.00,,,0.00,proprietary,2015-09-01 04:25:00,
2015-09-01 00:26:00,63.9,62.6,29.09,SSW,194,0.9,1.0,95,0.00,,,0.00,proprietary,2015-09-01 04:26:00,
2015-09-01 00:27:00,63.9,62.6,29.09,SSW,202,1.1,1.2,95,0.00,,,0.00,proprietary,2015-09-01 04:27:00,
2015-09-01 00:37:00,63.9,62.6,29.09,SSW,207,1.0,1.1,95,0.00,,,0.00,proprietary,2015-09-01 04:37:00,
2015-09-01 00:43:00,63.7,62.6,29.09,SW,233,1.3,1.4,96,0.00,,,0.00,proprietary,2015-09-01 04:43:00,
2015-09-01 00:48:00,63.6,62.5,29.09,North,0,0.0,0.0,96,0.00,,,0.00,proprietary,2015-09-01 04:48:00,
2015-09-01 00:53:00,63.5,62.3,29.09,SSW,197,0.5,1.0,95,0.00,,,0.00,proprietary,2015-09-01 04:53:00,
2015-09-01 00:58:00,63.5,62.4,29.09,North,0,0.0,0.0,96,0.00,,,0.00,proprietary,2015-09-01 04:58:00,